Aviation Digital Data Service (ADDS)

Output produced by METARs form (0434 UTC 18 October 2018)
found at http://aviationweather.gov/metar/data/
 
KHOU 180300Z 1803/1824 01013KT 5SM BR OVC006 
     TEMPO 1804/1808 5SM -RA BR OVC005 
     FM180900 02008KT 4SM -DZ BR OVC006 
     FM181400 03012KT P6SM OVC009 
     FM181800 04010KT P6SM OVC012